sensor_id;sensor_type;location;lat;lon;timestamp;P1;durP1;ratioP1;P2;durP2;ratioP2
74612;SDS011;63119;51.788;8.824;2022-11-11T00:02:16;3.80;;;2.50;;
74612;SDS011;63119;51.788;8.824;2022-11-11T00:04:41;4.73;;;2.47;;
74612;SDS011;63119;51.788;8.824;2022-11-11T00:07:06;6.73;;;2.60;;
74612;SDS011;63119;51.788;8.824;2022-11-11T00:09:32;5.90;;;2.80;;
74612;SDS011;63119;51.788;8.824;2022-11-11T00:11:57;5.07;;;2.40;;
74612;SDS011;63119;51.788;8.824;2022-11-11T00:14:22;4.83;;;2.50;;
74612;SDS011;63119;51.788;8.824;2022-11-11T00:16:47;5.40;;;2.40;;
74612;SDS011;63119;51.788;8.824;2022-11-11T00:19:31;6.07;;;2.42;;
74612;SDS011;63119;51.788;8.824;2022-11-11T00:22:19;5.00;;;2.63;;
74612;SDS011;63119;51.788;8.824;2022-11-11T00:25:03;4.57;;;2.28;;
74612;SDS011;63119;51.788;8.824;2022-11-11T00:29:57;4.40;;;2.38;;
74612;SDS011;63119;51.788;8.824;2022-11-11T00:32:22;6.27;;;2.50;;
74612;SDS011;63119;51.788;8.824;2022-11-11T00:34:48;4.68;;;2.10;;
74612;SDS011;63119;51.788;8.824;2022-11-11T00:37:33;7.00;;;2.25;;
74612;SDS011;63119;51.788;8.824;2022-11-11T00:39:59;6.90;;;2.17;;
74612;SDS011;63119;51.788;8.824;2022-11-11T00:42:24;3.17;;;1.85;;
74612;SDS011;63119;51.788;8.824;2022-11-11T00:44:50;5.43;;;2.55;;
74612;SDS011;63119;51.788;8.824;2022-11-11T00:47:15;7.30;;;2.90;;
74612;SDS011;63119;51.788;8.824;2022-11-11T00:49:59;6.35;;;2.40;;
74612;SDS011;63119;51.788;8.824;2022-11-11T00:52:46;4.63;;;1.63;;
74612;SDS011;63119;51.788;8.824;2022-11-11T00:55:12;4.28;;;2.00;;
74612;SDS011;63119;51.788;8.824;2022-11-11T00:57:38;3.58;;;1.90;;
74612;SDS011;63119;51.788;8.824;2022-11-11T01:00:03;3.53;;;2.07;;
74612;SDS011;63119;51.788;8.824;2022-11-11T01:02:29;6.68;;;2.25;;
74612;SDS011;63119;51.788;8.824;2022-11-11T01:04:54;4.90;;;2.23;;
74612;SDS011;63119;51.788;8.824;2022-11-11T01:07:19;6.47;;;2.00;;
74612;SDS011;63119;51.788;8.824;2022-11-11T01:09:45;3.90;;;2.10;;
74612;SDS011;63119;51.788;8.824;2022-11-11T01:12:10;3.50;;;2.07;;
74612;SDS011;63119;51.788;8.824;2022-11-11T01:14:35;3.60;;;2.10;;
74612;SDS011;63119;51.788;8.824;2022-11-11T01:17:00;5.37;;;2.00;;
74612;SDS011;63119;51.788;8.824;2022-11-11T01:19:27;6.05;;;2.05;;
74612;SDS011;63119;51.788;8.824;2022-11-11T01:21:52;6.95;;;2.20;;
74612;SDS011;63119;51.788;8.824;2022-11-11T01:24:17;4.53;;;2.27;;
74612;SDS011;63119;51.788;8.824;2022-11-11T01:26:42;4.30;;;2.10;;
74612;SDS011;63119;51.788;8.824;2022-11-11T01:29:08;4.47;;;1.90;;
74612;SDS011;63119;51.788;8.824;2022-11-11T01:31:33;6.73;;;2.37;;
74612;SDS011;63119;51.788;8.824;2022-11-11T01:33:58;4.63;;;2.40;;
74612;SDS011;63119;51.788;8.824;2022-11-11T01:36:24;4.33;;;2.17;;
74612;SDS011;63119;51.788;8.824;2022-11-11T01:38:52;3.42;;;1.70;;
74612;SDS011;63119;51.788;8.824;2022-11-11T01:41:21;3.53;;;1.75;;
74612;SDS011;63119;51.788;8.824;2022-11-11T01:44:37;4.15;;;1.83;;
74612;SDS011;63119;51.788;8.824;2022-11-11T01:47:03;4.93;;;2.20;;
74612;SDS011;63119;51.788;8.824;2022-11-11T01:49:49;2.50;;;1.77;;
74612;SDS011;63119;51.788;8.824;2022-11-11T01:52:28;3.85;;;1.90;;
74612;SDS011;63119;51.788;8.824;2022-11-11T01:55:02;6.05;;;1.83;;
74612;SDS011;63119;51.788;8.824;2022-11-11T01:57:48;5.22;;;2.15;;
74612;SDS011;63119;51.788;8.824;2022-11-11T02:00:18;5.43;;;1.73;;
74612;SDS011;63119;51.788;8.824;2022-11-11T02:02:48;5.28;;;1.60;;
74612;SDS011;63119;51.788;8.824;2022-11-11T02:05:17;4.07;;;1.90;;
74612;SDS011;63119;51.788;8.824;2022-11-11T02:08:04;3.38;;;1.50;;
74612;SDS011;63119;51.788;8.824;2022-11-11T02:10:34;5.10;;;2.00;;
74612;SDS011;63119;51.788;8.824;2022-11-11T02:13:00;6.32;;;1.75;;
74612;SDS011;63119;51.788;8.824;2022-11-11T02:15:44;8.15;;;2.42;;
74612;SDS011;63119;51.788;8.824;2022-11-11T02:18:10;5.28;;;2.05;;
74612;SDS011;63119;51.788;8.824;2022-11-11T02:20:37;3.67;;;1.48;;
74612;SDS011;63119;51.788;8.824;2022-11-11T02:23:15;4.70;;;2.00;;
74612;SDS011;63119;51.788;8.824;2022-11-11T02:25:46;3.47;;;1.40;;
74612;SDS011;63119;51.788;8.824;2022-11-11T02:28:13;5.00;;;1.90;;
74612;SDS011;63119;51.788;8.824;2022-11-11T02:30:40;4.20;;;2.03;;
74612;SDS011;63119;51.788;8.824;2022-11-11T02:33:05;3.90;;;1.90;;
74612;SDS011;63119;51.788;8.824;2022-11-11T02:35:32;3.30;;;1.50;;
74612;SDS011;63119;51.788;8.824;2022-11-11T02:38:00;3.60;;;1.95;;
74612;SDS011;63119;51.788;8.824;2022-11-11T02:40:39;2.65;;;1.45;;
74612;SDS011;63119;51.788;8.824;2022-11-11T02:43:32;4.30;;;1.60;;
74612;SDS011;63119;51.788;8.824;2022-11-11T02:45:58;3.05;;;1.80;;
74612;SDS011;63119;51.788;8.824;2022-11-11T02:48:25;4.25;;;1.50;;
74612;SDS011;63119;51.788;8.824;2022-11-11T02:50:50;4.57;;;1.58;;
74612;SDS011;63119;51.788;8.824;2022-11-11T02:53:16;3.67;;;1.80;;
74612;SDS011;63119;51.788;8.824;2022-11-11T02:55:42;2.27;;;1.60;;
74612;SDS011;63119;51.788;8.824;2022-11-11T02:58:07;3.63;;;1.43;;
74612;SDS011;63119;51.788;8.824;2022-11-11T03:00:33;7.97;;;2.33;;
74612;SDS011;63119;51.788;8.824;2022-11-11T03:02:58;6.33;;;2.13;;
74612;SDS011;63119;51.788;8.824;2022-11-11T03:05:23;3.90;;;1.83;;
74612;SDS011;63119;51.788;8.824;2022-11-11T03:07:48;4.80;;;1.70;;
74612;SDS011;63119;51.788;8.824;2022-11-11T03:10:14;4.00;;;1.70;;
74612;SDS011;63119;51.788;8.824;2022-11-11T03:12:40;3.88;;;1.70;;
74612;SDS011;63119;51.788;8.824;2022-11-11T03:15:05;5.20;;;1.80;;
74612;SDS011;63119;51.788;8.824;2022-11-11T03:17:31;3.65;;;1.70;;
74612;SDS011;63119;51.788;8.824;2022-11-11T03:20:12;4.80;;;1.50;;
74612;SDS011;63119;51.788;8.824;2022-11-11T03:25:42;3.00;;;1.40;;
74612;SDS011;63119;51.788;8.824;2022-11-11T03:28:10;4.18;;;1.85;;
74612;SDS011;63119;51.788;8.824;2022-11-11T03:30:46;5.95;;;1.95;;
74612;SDS011;63119;51.788;8.824;2022-11-11T03:33:13;3.53;;;1.85;;
74612;SDS011;63119;51.788;8.824;2022-11-11T03:35:40;3.45;;;1.48;;
74612;SDS011;63119;51.788;8.824;2022-11-11T03:38:06;4.55;;;1.45;;
74612;SDS011;63119;51.788;8.824;2022-11-11T03:40:47;3.08;;;1.52;;
74612;SDS011;63119;51.788;8.824;2022-11-11T03:43:14;3.40;;;1.42;;
74612;SDS011;63119;51.788;8.824;2022-11-11T03:45:42;4.10;;;1.90;;
74612;SDS011;63119;51.788;8.824;2022-11-11T03:48:08;2.95;;;1.48;;
74612;SDS011;63119;51.788;8.824;2022-11-11T03:50:33;3.35;;;1.60;;
74612;SDS011;63119;51.788;8.824;2022-11-11T03:52:59;3.93;;;1.80;;
74612;SDS011;63119;51.788;8.824;2022-11-11T03:55:24;2.58;;;1.25;;
74612;SDS011;63119;51.788;8.824;2022-11-11T03:57:50;5.20;;;1.80;;
74612;SDS011;63119;51.788;8.824;2022-11-11T04:00:16;2.83;;;1.60;;
74612;SDS011;63119;51.788;8.824;2022-11-11T04:02:47;4.00;;;1.70;;
74612;SDS011;63119;51.788;8.824;2022-11-11T04:05:31;4.00;;;1.88;;
74612;SDS011;63119;51.788;8.824;2022-11-11T04:08:15;4.75;;;1.80;;
74612;SDS011;63119;51.788;8.824;2022-11-11T04:11:05;2.92;;;1.50;;
74612;SDS011;63119;51.788;8.824;2022-11-11T04:13:36;5.57;;;1.95;;
74612;SDS011;63119;51.788;8.824;2022-11-11T04:16:22;3.00;;;1.45;;
74612;SDS011;63119;51.788;8.824;2022-11-11T04:18:48;3.70;;;1.70;;
74612;SDS011;63119;51.788;8.824;2022-11-11T04:21:31;4.90;;;1.92;;
74612;SDS011;63119;51.788;8.824;2022-11-11T04:24:09;4.07;;;2.00;;
74612;SDS011;63119;51.788;8.824;2022-11-11T04:26:58;3.25;;;2.00;;
74612;SDS011;63119;51.788;8.824;2022-11-11T04:29:25;8.50;;;3.08;;
74612;SDS011;63119;51.788;8.824;2022-11-11T04:32:00;6.13;;;2.60;;
74612;SDS011;63119;51.788;8.824;2022-11-11T04:34:47;7.60;;;3.42;;
74612;SDS011;63119;51.788;8.824;2022-11-11T04:37:14;6.85;;;3.63;;
74612;SDS011;63119;51.788;8.824;2022-11-11T04:39:40;7.35;;;3.45;;
74612;SDS011;63119;51.788;8.824;2022-11-11T04:42:24;9.40;;;3.92;;
74612;SDS011;63119;51.788;8.824;2022-11-11T04:44:50;10.25;;;4.80;;
74612;SDS011;63119;51.788;8.824;2022-11-11T04:47:34;6.18;;;3.45;;
74612;SDS011;63119;51.788;8.824;2022-11-11T04:49:59;9.63;;;3.45;;
74612;SDS011;63119;51.788;8.824;2022-11-11T04:52:25;6.57;;;2.80;;
74612;SDS011;63119;51.788;8.824;2022-11-11T04:54:50;4.57;;;2.30;;
74612;SDS011;63119;51.788;8.824;2022-11-11T04:57:37;5.75;;;2.70;;
74612;SDS011;63119;51.788;8.824;2022-11-11T05:00:04;6.93;;;2.30;;
74612;SDS011;63119;51.788;8.824;2022-11-11T05:02:30;4.45;;;2.10;;
74612;SDS011;63119;51.788;8.824;2022-11-11T05:05:15;4.72;;;2.28;;
74612;SDS011;63119;51.788;8.824;2022-11-11T05:07:40;4.37;;;2.27;;
74612;SDS011;63119;51.788;8.824;2022-11-11T05:10:25;4.10;;;2.10;;
74612;SDS011;63119;51.788;8.824;2022-11-11T05:12:50;4.13;;;2.33;;
74612;SDS011;63119;51.788;8.824;2022-11-11T05:15:15;5.70;;;2.27;;
74612;SDS011;63119;51.788;8.824;2022-11-11T05:17:59;5.13;;;2.10;;
74612;SDS011;63119;51.788;8.824;2022-11-11T05:20:47;4.50;;;2.00;;
74612;SDS011;63119;51.788;8.824;2022-11-11T05:23:32;5.53;;;2.15;;
74612;SDS011;63119;51.788;8.824;2022-11-11T05:26:16;3.80;;;1.58;;
74612;SDS011;63119;51.788;8.824;2022-11-11T05:28:41;3.37;;;1.70;;
74612;SDS011;63119;51.788;8.824;2022-11-11T05:31:06;3.33;;;1.60;;
74612;SDS011;63119;51.788;8.824;2022-11-11T05:33:32;6.40;;;1.93;;
74612;SDS011;63119;51.788;8.824;2022-11-11T05:35:57;2.50;;;1.50;;
74612;SDS011;63119;51.788;8.824;2022-11-11T05:38:22;4.90;;;2.40;;
74612;SDS011;63119;51.788;8.824;2022-11-11T05:40:47;3.63;;;1.63;;
74612;SDS011;63119;51.788;8.824;2022-11-11T05:43:13;4.17;;;1.73;;
74612;SDS011;63119;51.788;8.824;2022-11-11T05:45:39;6.13;;;1.77;;
74612;SDS011;63119;51.788;8.824;2022-11-11T05:48:06;3.78;;;1.48;;
74612;SDS011;63119;51.788;8.824;2022-11-11T05:50:31;4.47;;;1.67;;
74612;SDS011;63119;51.788;8.824;2022-11-11T05:52:57;2.53;;;1.60;;
74612;SDS011;63119;51.788;8.824;2022-11-11T05:55:22;6.50;;;2.08;;
74612;SDS011;63119;51.788;8.824;2022-11-11T05:57:47;3.73;;;1.97;;
74612;SDS011;63119;51.788;8.824;2022-11-11T06:00:13;5.47;;;1.57;;
74612;SDS011;63119;51.788;8.824;2022-11-11T06:02:38;3.88;;;1.80;;
74612;SDS011;63119;51.788;8.824;2022-11-11T06:05:04;3.70;;;1.83;;
74612;SDS011;63119;51.788;8.824;2022-11-11T06:07:31;4.35;;;1.80;;
74612;SDS011;63119;51.788;8.824;2022-11-11T06:09:57;5.23;;;1.87;;
74612;SDS011;63119;51.788;8.824;2022-11-11T06:12:42;5.43;;;2.42;;
74612;SDS011;63119;51.788;8.824;2022-11-11T06:15:26;8.05;;;2.10;;
74612;SDS011;63119;51.788;8.824;2022-11-11T06:17:52;5.60;;;1.95;;
74612;SDS011;63119;51.788;8.824;2022-11-11T06:20:17;4.40;;;2.00;;
74612;SDS011;63119;51.788;8.824;2022-11-11T06:22:43;3.93;;;2.13;;
74612;SDS011;63119;51.788;8.824;2022-11-11T06:25:20;8.13;;;2.20;;
74612;SDS011;63119;51.788;8.824;2022-11-11T06:28:05;6.40;;;2.10;;
74612;SDS011;63119;51.788;8.824;2022-11-11T06:30:30;4.37;;;2.13;;
74612;SDS011;63119;51.788;8.824;2022-11-11T06:32:55;7.10;;;2.07;;
74612;SDS011;63119;51.788;8.824;2022-11-11T06:35:20;5.83;;;1.87;;
74612;SDS011;63119;51.788;8.824;2022-11-11T06:37:46;4.10;;;1.87;;
74612;SDS011;63119;51.788;8.824;2022-11-11T06:40:11;4.30;;;2.20;;
74612;SDS011;63119;51.788;8.824;2022-11-11T06:42:36;3.60;;;2.37;;
74612;SDS011;63119;51.788;8.824;2022-11-11T06:45:02;4.40;;;2.03;;
74612;SDS011;63119;51.788;8.824;2022-11-11T06:47:28;3.28;;;2.03;;
74612;SDS011;63119;51.788;8.824;2022-11-11T06:49:53;8.60;;;2.77;;
74612;SDS011;63119;51.788;8.824;2022-11-11T06:52:18;3.80;;;2.40;;
74612;SDS011;63119;51.788;8.824;2022-11-11T06:54:43;7.63;;;2.50;;
74612;SDS011;63119;51.788;8.824;2022-11-11T06:57:09;3.90;;;2.00;;
74612;SDS011;63119;51.788;8.824;2022-11-11T06:59:34;5.10;;;1.90;;
74612;SDS011;63119;51.788;8.824;2022-11-11T07:01:59;4.47;;;2.50;;
74612;SDS011;63119;51.788;8.824;2022-11-11T07:04:24;8.07;;;2.57;;
74612;SDS011;63119;51.788;8.824;2022-11-11T07:06:50;5.63;;;2.77;;
74612;SDS011;63119;51.788;8.824;2022-11-11T07:09:15;5.37;;;2.30;;
74612;SDS011;63119;51.788;8.824;2022-11-11T07:11:40;5.00;;;2.47;;
74612;SDS011;63119;51.788;8.824;2022-11-11T07:14:05;4.80;;;2.37;;
74612;SDS011;63119;51.788;8.824;2022-11-11T07:16:31;7.33;;;2.80;;
74612;SDS011;63119;51.788;8.824;2022-11-11T07:18:56;9.33;;;3.60;;
74612;SDS011;63119;51.788;8.824;2022-11-11T07:21:21;5.60;;;2.40;;
74612;SDS011;63119;51.788;8.824;2022-11-11T07:23:47;4.10;;;2.10;;
74612;SDS011;63119;51.788;8.824;2022-11-11T07:26:12;4.93;;;2.20;;
74612;SDS011;63119;51.788;8.824;2022-11-11T07:28:37;5.17;;;2.40;;
74612;SDS011;63119;51.788;8.824;2022-11-11T07:31:02;7.10;;;2.37;;
74612;SDS011;63119;51.788;8.824;2022-11-11T07:33:28;5.87;;;2.10;;
74612;SDS011;63119;51.788;8.824;2022-11-11T07:35:53;5.80;;;2.50;;
74612;SDS011;63119;51.788;8.824;2022-11-11T07:38:18;4.33;;;1.80;;
74612;SDS011;63119;51.788;8.824;2022-11-11T07:40:43;5.97;;;2.20;;
74612;SDS011;63119;51.788;8.824;2022-11-11T07:43:08;4.37;;;2.30;;
74612;SDS011;63119;51.788;8.824;2022-11-11T07:45:34;5.60;;;2.73;;
74612;SDS011;63119;51.788;8.824;2022-11-11T07:47:59;4.20;;;2.23;;
74612;SDS011;63119;51.788;8.824;2022-11-11T07:50:24;5.73;;;2.33;;
74612;SDS011;63119;51.788;8.824;2022-11-11T07:52:49;7.10;;;2.80;;
74612;SDS011;63119;51.788;8.824;2022-11-11T07:55:15;8.10;;;2.80;;
74612;SDS011;63119;51.788;8.824;2022-11-11T07:57:40;9.18;;;2.72;;
74612;SDS011;63119;51.788;8.824;2022-11-11T08:00:06;5.27;;;2.67;;
74612;SDS011;63119;51.788;8.824;2022-11-11T08:02:31;7.53;;;2.53;;
74612;SDS011;63119;51.788;8.824;2022-11-11T08:04:57;6.30;;;2.73;;
74612;SDS011;63119;51.788;8.824;2022-11-11T08:07:22;5.20;;;2.37;;
74612;SDS011;63119;51.788;8.824;2022-11-11T08:09:47;5.85;;;2.28;;
74612;SDS011;63119;51.788;8.824;2022-11-11T08:12:13;4.50;;;2.60;;
74612;SDS011;63119;51.788;8.824;2022-11-11T08:14:57;6.65;;;2.50;;
74612;SDS011;63119;51.788;8.824;2022-11-11T08:17:22;6.30;;;2.30;;
74612;SDS011;63119;51.788;8.824;2022-11-11T08:19:47;9.57;;;2.77;;
74612;SDS011;63119;51.788;8.824;2022-11-11T08:22:13;7.97;;;2.63;;
74612;SDS011;63119;51.788;8.824;2022-11-11T08:24:38;5.43;;;2.63;;
74612;SDS011;63119;51.788;8.824;2022-11-11T08:27:03;2.93;;;1.80;;
74612;SDS011;63119;51.788;8.824;2022-11-11T08:29:28;3.30;;;1.53;;
74612;SDS011;63119;51.788;8.824;2022-11-11T08:31:54;4.53;;;1.20;;
74612;SDS011;63119;51.788;8.824;2022-11-11T08:34:19;3.70;;;1.90;;
74612;SDS011;63119;51.788;8.824;2022-11-11T08:36:44;3.33;;;1.50;;
74612;SDS011;63119;51.788;8.824;2022-11-11T08:39:09;4.23;;;1.60;;
74612;SDS011;63119;51.788;8.824;2022-11-11T08:41:35;4.15;;;1.30;;
74612;SDS011;63119;51.788;8.824;2022-11-11T08:44:01;4.43;;;1.38;;
74612;SDS011;63119;51.788;8.824;2022-11-11T08:46:27;4.45;;;1.33;;
74612;SDS011;63119;51.788;8.824;2022-11-11T08:48:53;1.97;;;1.20;;
74612;SDS011;63119;51.788;8.824;2022-11-11T08:51:18;5.10;;;1.60;;
74612;SDS011;63119;51.788;8.824;2022-11-11T08:53:43;3.45;;;1.65;;
74612;SDS011;63119;51.788;8.824;2022-11-11T08:56:08;8.23;;;2.17;;
74612;SDS011;63119;51.788;8.824;2022-11-11T08:58:36;4.68;;;2.05;;
74612;SDS011;63119;51.788;8.824;2022-11-11T09:01:01;5.55;;;2.00;;
74612;SDS011;63119;51.788;8.824;2022-11-11T09:03:28;4.22;;;1.90;;
74612;SDS011;63119;51.788;8.824;2022-11-11T09:05:54;4.53;;;1.40;;
74612;SDS011;63119;51.788;8.824;2022-11-11T09:08:20;3.80;;;1.35;;
74612;SDS011;63119;51.788;8.824;2022-11-11T09:10:45;1.53;;;0.83;;
74612;SDS011;63119;51.788;8.824;2022-11-11T09:13:10;1.90;;;0.90;;
74612;SDS011;63119;51.788;8.824;2022-11-11T09:15:35;4.60;;;1.03;;
74612;SDS011;63119;51.788;8.824;2022-11-11T09:18:01;1.27;;;0.80;;
74612;SDS011;63119;51.788;8.824;2022-11-11T09:20:27;2.75;;;0.90;;
74612;SDS011;63119;51.788;8.824;2022-11-11T09:22:53;3.08;;;1.05;;
74612;SDS011;63119;51.788;8.824;2022-11-11T09:25:18;3.78;;;0.95;;
74612;SDS011;63119;51.788;8.824;2022-11-11T09:27:52;2.53;;;0.90;;
74612;SDS011;63119;51.788;8.824;2022-11-11T09:30:19;3.10;;;1.17;;
74612;SDS011;63119;51.788;8.824;2022-11-11T09:32:45;3.42;;;0.77;;
74612;SDS011;63119;51.788;8.824;2022-11-11T09:35:10;1.67;;;0.93;;
74612;SDS011;63119;51.788;8.824;2022-11-11T09:37:35;3.90;;;0.80;;
74612;SDS011;63119;51.788;8.824;2022-11-11T09:40:01;0.87;;;0.60;;
74612;SDS011;63119;51.788;8.824;2022-11-11T09:45:13;1.73;;;0.50;;
74612;SDS011;63119;51.788;8.824;2022-11-11T09:47:54;1.10;;;0.85;;
74612;SDS011;63119;51.788;8.824;2022-11-11T09:50:24;1.85;;;0.68;;
74612;SDS011;63119;51.788;8.824;2022-11-11T09:53:03;1.52;;;0.70;;
74612;SDS011;63119;51.788;8.824;2022-11-11T09:55:35;1.13;;;0.50;;
74612;SDS011;63119;51.788;8.824;2022-11-11T09:58:16;1.30;;;0.73;;
74612;SDS011;63119;51.788;8.824;2022-11-11T10:00:45;2.08;;;0.63;;
74612;SDS011;63119;51.788;8.824;2022-11-11T10:08:20;2.47;;;0.80;;
74612;SDS011;63119;51.788;8.824;2022-11-11T10:10:50;2.60;;;0.77;;
74612;SDS011;63119;51.788;8.824;2022-11-11T10:13:33;1.52;;;0.60;;
74612;SDS011;63119;51.788;8.824;2022-11-11T10:21:25;2.97;;;0.57;;
74612;SDS011;63119;51.788;8.824;2022-11-11T10:23:58;2.67;;;0.77;;
74612;SDS011;63119;51.788;8.824;2022-11-11T10:26:36;2.45;;;0.80;;
74612;SDS011;63119;51.788;8.824;2022-11-11T10:29:05;2.00;;;0.80;;
74612;SDS011;63119;51.788;8.824;2022-11-11T10:31:38;1.70;;;0.70;;
74612;SDS011;63119;51.788;8.824;2022-11-11T10:34:12;3.03;;;0.80;;
74612;SDS011;63119;51.788;8.824;2022-11-11T10:36:42;2.88;;;0.80;;
74612;SDS011;63119;51.788;8.824;2022-11-11T10:39:25;3.90;;;0.70;;
74612;SDS011;63119;51.788;8.824;2022-11-11T10:41:57;1.52;;;0.75;;
74612;SDS011;63119;51.788;8.824;2022-11-11T10:44:30;1.90;;;0.50;;
74612;SDS011;63119;51.788;8.824;2022-11-11T10:46:59;1.92;;;0.80;;
74612;SDS011;63119;51.788;8.824;2022-11-11T10:49:31;3.08;;;0.73;;
74612;SDS011;63119;51.788;8.824;2022-11-11T10:52:19;3.58;;;0.73;;
74612;SDS011;63119;51.788;8.824;2022-11-11T10:57:28;2.53;;;0.95;;
74612;SDS011;63119;51.788;8.824;2022-11-11T11:00:10;1.02;;;0.70;;
74612;SDS011;63119;51.788;8.824;2022-11-11T11:02:44;1.40;;;0.60;;
74612;SDS011;63119;51.788;8.824;2022-11-11T11:05:16;0.75;;;0.60;;
74612;SDS011;63119;51.788;8.824;2022-11-11T11:12:47;1.27;;;0.55;;
74612;SDS011;63119;51.788;8.824;2022-11-11T11:15:22;2.63;;;0.80;;
74612;SDS011;63119;51.788;8.824;2022-11-11T11:17:53;1.85;;;0.60;;
74612;SDS011;63119;51.788;8.824;2022-11-11T11:20:24;2.25;;;0.73;;
74612;SDS011;63119;51.788;8.824;2022-11-11T11:22:51;1.53;;;0.73;;
74612;SDS011;63119;51.788;8.824;2022-11-11T11:25:23;1.63;;;0.60;;
74612;SDS011;63119;51.788;8.824;2022-11-11T11:27:50;1.83;;;0.80;;
74612;SDS011;63119;51.788;8.824;2022-11-11T11:33:05;3.13;;;0.80;;
74612;SDS011;63119;51.788;8.824;2022-11-11T11:35:37;1.67;;;0.73;;
74612;SDS011;63119;51.788;8.824;2022-11-11T11:38:05;3.17;;;0.63;;
74612;SDS011;63119;51.788;8.824;2022-11-11T11:40:44;1.77;;;0.60;;
74612;SDS011;63119;51.788;8.824;2022-11-11T11:43:23;1.40;;;0.70;;
74612;SDS011;63119;51.788;8.824;2022-11-11T11:45:53;1.33;;;0.68;;
74612;SDS011;63119;51.788;8.824;2022-11-11T11:51:19;1.98;;;0.68;;
74612;SDS011;63119;51.788;8.824;2022-11-11T11:57:02;2.90;;;0.70;;
74612;SDS011;63119;51.788;8.824;2022-11-11T11:59:38;1.55;;;0.77;;
74612;SDS011;63119;51.788;8.824;2022-11-11T12:10:56;0.98;;;0.50;;
74612;SDS011;63119;51.788;8.824;2022-11-11T12:13:43;1.65;;;0.60;;
74612;SDS011;63119;51.788;8.824;2022-11-11T12:16:25;1.30;;;0.68;;
74612;SDS011;63119;51.788;8.824;2022-11-11T12:27:13;1.35;;;0.70;;
74612;SDS011;63119;51.788;8.824;2022-11-11T12:37:53;2.63;;;0.57;;
74612;SDS011;63119;51.788;8.824;2022-11-11T12:48:53;1.48;;;0.73;;
74612;SDS011;63119;51.788;8.824;2022-11-11T12:54:18;1.83;;;0.52;;
74612;SDS011;63119;51.788;8.824;2022-11-11T12:57:05;0.90;;;0.47;;
74612;SDS011;63119;51.788;8.824;2022-11-11T13:07:35;2.20;;;0.70;;
74612;SDS011;63119;51.788;8.824;2022-11-11T13:13:09;1.73;;;0.80;;
74612;SDS011;63119;51.788;8.824;2022-11-11T13:15:38;1.65;;;0.60;;
74612;SDS011;63119;51.788;8.824;2022-11-11T13:18:09;2.13;;;0.73;;
74612;SDS011;63119;51.788;8.824;2022-11-11T13:20:41;0.90;;;0.60;;
74612;SDS011;63119;51.788;8.824;2022-11-11T13:23:10;2.25;;;0.73;;
74612;SDS011;63119;51.788;8.824;2022-11-11T13:25:44;2.72;;;0.80;;
74612;SDS011;63119;51.788;8.824;2022-11-11T13:28:18;1.98;;;0.75;;
74612;SDS011;63119;51.788;8.824;2022-11-11T13:33:36;2.15;;;0.50;;
74612;SDS011;63119;51.788;8.824;2022-11-11T13:36:06;1.25;;;0.57;;
74612;SDS011;63119;51.788;8.824;2022-11-11T13:38:42;2.47;;;0.68;;
74612;SDS011;63119;51.788;8.824;2022-11-11T13:41:10;2.08;;;0.82;;
74612;SDS011;63119;51.788;8.824;2022-11-11T13:43:46;3.63;;;0.80;;
74612;SDS011;63119;51.788;8.824;2022-11-11T13:49:24;2.60;;;1.30;;
74612;SDS011;63119;51.788;8.824;2022-11-11T13:51:56;1.55;;;0.57;;
74612;SDS011;63119;51.788;8.824;2022-11-11T13:54:40;2.30;;;0.88;;
74612;SDS011;63119;51.788;8.824;2022-11-11T13:57:16;1.95;;;0.80;;
74612;SDS011;63119;51.788;8.824;2022-11-11T13:59:56;1.17;;;0.60;;
74612;SDS011;63119;51.788;8.824;2022-11-11T14:02:26;1.70;;;0.70;;
74612;SDS011;63119;51.788;8.824;2022-11-11T14:12:54;2.35;;;0.70;;
74612;SDS011;63119;51.788;8.824;2022-11-11T14:18:47;1.45;;;0.98;;
74612;SDS011;63119;51.788;8.824;2022-11-11T14:21:06;1.77;;;0.75;;
74612;SDS011;63119;51.788;8.824;2022-11-11T14:23:34;2.80;;;0.77;;
74612;SDS011;63119;51.788;8.824;2022-11-11T14:39:23;1.65;;;0.80;;
74612;SDS011;63119;51.788;8.824;2022-11-11T14:42:00;13.32;;;7.45;;
74612;SDS011;63119;51.788;8.824;2022-11-11T14:57:47;3.25;;;1.70;;
74612;SDS011;63119;51.788;8.824;2022-11-11T15:00:16;4.25;;;1.77;;
74612;SDS011;63119;51.788;8.824;2022-11-11T15:02:53;3.80;;;2.25;;
74612;SDS011;63119;51.788;8.824;2022-11-11T15:05:47;2.63;;;1.45;;
74612;SDS011;63119;51.788;8.824;2022-11-11T15:11:04;3.88;;;1.70;;
74612;SDS011;63119;51.788;8.824;2022-11-11T15:16:44;4.00;;;1.00;;
74612;SDS011;63119;51.788;8.824;2022-11-11T15:19:31;2.17;;;0.82;;
74612;SDS011;63119;51.788;8.824;2022-11-11T15:30:17;2.22;;;1.25;;
74612;SDS011;63119;51.788;8.824;2022-11-11T15:38:17;2.40;;;1.25;;
74612;SDS011;63119;51.788;8.824;2022-11-11T15:40:47;2.80;;;1.30;;
74612;SDS011;63119;51.788;8.824;2022-11-11T15:43:21;4.13;;;1.63;;
74612;SDS011;63119;51.788;8.824;2022-11-11T15:45:50;3.67;;;1.70;;
74612;SDS011;63119;51.788;8.824;2022-11-11T15:48:19;5.57;;;1.70;;
74612;SDS011;63119;51.788;8.824;2022-11-11T15:50:47;2.30;;;1.52;;
74612;SDS011;63119;51.788;8.824;2022-11-11T15:53:12;5.60;;;2.07;;
74612;SDS011;63119;51.788;8.824;2022-11-11T15:55:39;2.78;;;1.60;;
74612;SDS011;63119;51.788;8.824;2022-11-11T16:00:33;2.50;;;1.40;;
74612;SDS011;63119;51.788;8.824;2022-11-11T16:02:59;1.60;;;0.98;;
74612;SDS011;63119;51.788;8.824;2022-11-11T16:05:25;2.38;;;1.20;;
74612;SDS011;63119;51.788;8.824;2022-11-11T16:07:53;3.13;;;1.25;;
74612;SDS011;63119;51.788;8.824;2022-11-11T16:10:39;5.88;;;2.83;;
74612;SDS011;63119;51.788;8.824;2022-11-11T16:15:58;3.13;;;1.50;;
74612;SDS011;63119;51.788;8.824;2022-11-11T16:18:29;4.13;;;1.65;;
74612;SDS011;63119;51.788;8.824;2022-11-11T16:21:05;3.47;;;1.38;;
74612;SDS011;63119;51.788;8.824;2022-11-11T16:23:42;5.53;;;1.30;;
74612;SDS011;63119;51.788;8.824;2022-11-11T16:26:08;3.03;;;1.23;;
74612;SDS011;63119;51.788;8.824;2022-11-11T16:28:38;3.67;;;2.08;;
74612;SDS011;63119;51.788;8.824;2022-11-11T16:33:58;2.92;;;1.40;;
74612;SDS011;63119;51.788;8.824;2022-11-11T16:36:58;2.35;;;1.00;;
74612;SDS011;63119;51.788;8.824;2022-11-11T16:39:25;2.83;;;1.38;;
74612;SDS011;63119;51.788;8.824;2022-11-11T16:41:51;7.15;;;2.00;;
74612;SDS011;63119;51.788;8.824;2022-11-11T16:52:40;5.72;;;2.03;;
74612;SDS011;63119;51.788;8.824;2022-11-11T16:55:16;4.18;;;2.08;;
74612;SDS011;63119;51.788;8.824;2022-11-11T16:57:49;4.60;;;2.25;;
74612;SDS011;63119;51.788;8.824;2022-11-11T17:00:16;5.72;;;2.08;;
74612;SDS011;63119;51.788;8.824;2022-11-11T17:02:43;5.15;;;2.50;;
74612;SDS011;63119;51.788;8.824;2022-11-11T17:05:09;6.30;;;2.80;;
74612;SDS011;63119;51.788;8.824;2022-11-11T17:07:35;7.88;;;3.35;;
74612;SDS011;63119;51.788;8.824;2022-11-11T17:12:39;10.38;;;6.07;;
74612;SDS011;63119;51.788;8.824;2022-11-11T17:15:12;12.93;;;7.55;;
74612;SDS011;63119;51.788;8.824;2022-11-11T17:17:38;15.88;;;7.43;;
74612;SDS011;63119;51.788;8.824;2022-11-11T17:20:13;42.95;;;19.45;;
74612;SDS011;63119;51.788;8.824;2022-11-11T17:22:53;30.90;;;12.27;;
74612;SDS011;63119;51.788;8.824;2022-11-11T17:25:20;19.73;;;7.55;;
74612;SDS011;63119;51.788;8.824;2022-11-11T17:27:45;11.95;;;6.35;;
74612;SDS011;63119;51.788;8.824;2022-11-11T17:30:11;9.15;;;4.00;;
74612;SDS011;63119;51.788;8.824;2022-11-11T17:32:37;4.95;;;2.83;;
74612;SDS011;63119;51.788;8.824;2022-11-11T17:35:02;8.57;;;3.80;;
74612;SDS011;63119;51.788;8.824;2022-11-11T17:37:31;19.30;;;8.32;;
74612;SDS011;63119;51.788;8.824;2022-11-11T17:39:57;17.77;;;7.60;;
74612;SDS011;63119;51.788;8.824;2022-11-11T17:42:22;12.40;;;6.93;;
74612;SDS011;63119;51.788;8.824;2022-11-11T17:44:48;17.80;;;7.83;;
74612;SDS011;63119;51.788;8.824;2022-11-11T17:47:13;15.83;;;6.83;;
74612;SDS011;63119;51.788;8.824;2022-11-11T17:49:38;19.37;;;8.53;;
74612;SDS011;63119;51.788;8.824;2022-11-11T17:52:03;16.23;;;6.87;;